Abbott, Texas
Current Conditions -  °F | °C
As of 11:15 PM on Thursday 30 Oct 2014 (Local Time) from KINJ Reporting Station
Scattered Clouds Scattered Clouds  
Wind Chill: 65°   Ceiling: Unl
Heat Index: 65°   Visibility: 10mi
Dew Point: 56°   Wind: 3mph
Humidity: 73%   Direction: 360°N
Pressure: 30.15"   Gusts: NA
Location:  31.88°N, 97.07°W
Report Text: KINJ 310415Z AUTO 36003KT 10SM SCT100 19/14 A3015 RMK AO2 T01860136
Loading
Personal Weather Stations






























Interactive Weather Map New forecast layout! Learn more

10-Day Weather Forecast

Advertisements
Track Severe Weather on mobile